This is the latest recevied weather packets stored in our database for station/object N9BID. If no packets are shown the sender has not sent any weather packets the latest 10 day(s).
| Time | Temp. | Humidity | Pressure | Rain* | Wind** | Luminosity | Snow |
|---|---|---|---|---|---|---|---|
| 1777820685 | 14.44° C | 61% | 998.3 hPa | 0 mm | - | 518 W/m² | - |
| 1777820380 | 14.44° C | 57% | 998.4 hPa | 0 mm | - | 503 W/m² | - |
| 1777820078 | 13.89° C | 61% | 998.2 hPa | 0 mm | - | 488 W/m² | - |
| 1777819776 | 13.89° C | 59% | 998.4 hPa | 0 mm | - | 493 W/m² | - |
| 1777819473 | 13.89° C | 60% | 998.4 hPa | 0 mm | - | 487 W/m² | - |
| 1777819171 | 13.89° C | 61% | 998.4 hPa | 0 mm | - | 477 W/m² | - |
| 1777818867 | 13.89° C | 61% | 998.5 hPa | 0 mm | - | 429 W/m² | - |
| 1777818563 | 13.89° C | 63% | 998.4 hPa | 0 mm | - | 400 W/m² | - |
| 1777818261 | 13.89° C | 62% | 998.4 hPa | 0 mm | - | 404 W/m² | - |
| 1777817957 | 13.33° C | 61% | 998.6 hPa | 0 mm | - | 408 W/m² | - |
| 1777817655 | 13.33° C | 61% | 998.7 hPa | 0 mm | - | 400 W/m² | - |
| 1777817351 | 13.33° C | 62% | 998.7 hPa | 0 mm | - | 370 W/m² | - |
| 1777817049 | 13.33° C | 61% | 998.6 hPa | 0 mm | - | 340 W/m² | - |
| 1777816744 | 13.33° C | 63% | 998.6 hPa | 0 mm | - | 326 W/m² | - |
| 1777816442 | 12.78° C | 61% | 998.5 hPa | 0 mm | - | 314 W/m² | - |
| 1777816139 | 12.78° C | 61% | 998.8 hPa | 0 mm | - | 308 W/m² | - |
| 1777815837 | 12.78° C | 61% | 998.8 hPa | 0 mm | - | 290 W/m² | - |
| 1777815534 | 12.78° C | 62% | 998.7 hPa | 0 mm | - | 266 W/m² | - |
| 1777815232 | 12.22° C | 62% | 998.8 hPa | 0 mm | - | 247 W/m² | - |
| 1777814927 | 12.22° C | 63% | 998.7 hPa | 0 mm | - | 242 W/m² | - |
| 1777814624 | 12.22° C | 64% | 998.8 hPa | 0 mm | - | 247 W/m² | - |
| 1777814321 | 11.67° C | 66% | 998.8 hPa | 0 mm | - | 228 W/m² | - |
| 1777814018 | 11.11° C | 67% | 998.9 hPa | 0 mm | - | 219 W/m² | - |
| 1777813715 | 11.11° C | 65% | 998.6 hPa | 0 mm | - | 73 W/m² | - |
| 1777813413 | 11.11° C | 66% | 998.8 hPa | 0 mm | - | 82 W/m² | - |
* Rain latest hour (hover to see other rain measurements)
** Current wind speed in m/s (hover to see current wind gust speed)